Time;durP1;ratioP1;P1;durP2;ratioP2;P2;SDS_P1;SDS_P2;PMS_P1;PMS_P2;Temp;Humidity;BMP_temperature;BMP_pressure;BME280_temperature;BME280_humidity;BME280_pressure;Samples;Min_cycle;Max_cycle;Signal;HPM_P1;HPM_P2
2021/06/12 00:01:38;;;;;;;28.83;19.52;;;;;;;18.00;100.00;101785.97;3558994;40;21574;-65
2021/06/12 00:04:04;;;;;;;23.10;18.25;;;;;;;17.90;100.00;101787.94;3558333;40;20170;-65
2021/06/12 00:06:30;;;;;;;27.30;20.55;;;;;;;17.95;100.00;101787.50;3556997;40;20084;-67
2021/06/12 00:08:56;;;;;;;27.48;20.55;;;;;;;17.94;100.00;101780.31;3558694;40;20049;-64
2021/06/12 00:11:22;;;;;;;25.60;20.27;;;;;;;17.95;100.00;101782.88;3554196;40;20307;-66
2021/06/12 00:13:48;;;;;;;28.33;19.77;;;;;;;17.83;100.00;101776.84;3557675;40;20051;-65
2021/06/12 00:16:15;;;;;;;24.30;18.92;;;;;;;17.79;100.00;101775.44;3558204;40;20040;-65
2021/06/12 00:18:41;;;;;;;25.13;19.30;;;;;;;17.79;100.00;101786.34;3560067;40;20061;-65
2021/06/12 00:21:08;;;;;;;26.60;19.95;;;;;;;17.84;100.00;101786.72;3556130;40;20060;-64
2021/06/12 00:23:33;;;;;;;25.95;19.20;;;;;;;17.91;100.00;101786.09;3559902;40;20115;-65
2021/06/12 00:26:00;;;;;;;23.90;17.88;;;;;;;17.94;100.00;101774.88;3557321;40;20033;-65
2021/06/12 00:28:26;;;;;;;29.98;19.63;;;;;;;17.96;100.00;101772.84;3553918;40;20315;-65
2021/06/12 00:30:51;;;;;;;26.38;19.52;;;;;;;17.92;100.00;101782.34;3551800;40;20072;-64
2021/06/12 00:33:19;;;;;;;25.27;18.30;;;;;;;17.89;100.00;101777.19;3551290;40;20056;-64
2021/06/12 00:35:45;;;;;;;25.52;18.35;;;;;;;17.89;100.00;101774.47;3550653;40;20045;-66
2021/06/12 00:38:12;;;;;;;28.80;19.98;;;;;;;17.88;100.00;101767.34;3551618;40;20403;-65
2021/06/12 00:40:38;;;;;;;31.13;19.25;;;;;;;17.78;100.00;101770.16;3555290;40;20467;-65
2021/06/12 00:43:05;;;;;;;27.58;19.55;;;;;;;17.82;100.00;101766.09;3553477;40;20319;-66
2021/06/12 00:45:32;;;;;;;26.58;19.50;;;;;;;17.80;100.00;101758.09;3557983;40;20165;-65
2021/06/12 00:47:58;;;;;;;28.50;18.13;;;;;;;17.82;100.00;101756.06;3558531;40;20406;-65
2021/06/12 00:50:28;;;;;;;28.15;18.73;;;;;;;17.73;100.00;101759.75;3559511;40;20253;-66
2021/06/12 00:52:54;;;;;;;23.67;18.55;;;;;;;17.84;100.00;101758.59;3552570;40;20052;-65
2021/06/12 00:55:20;;;;;;;27.75;18.92;;;;;;;17.90;100.00;101762.59;3553205;40;20156;-65
2021/06/12 00:57:47;;;;;;;23.30;17.15;;;;;;;17.92;100.00;101771.44;3558100;40;20045;-64
2021/06/12 01:00:16;;;;;;;24.13;17.80;;;;;;;17.92;100.00;101763.28;3557391;40;20068;-65
2021/06/12 01:02:42;;;;;;;25.27;17.98;;;;;;;17.92;100.00;101766.00;3554358;40;20052;-65
2021/06/12 01:05:11;;;;;;;27.98;18.50;;;;;;;17.97;100.00;101772.66;3552733;40;21635;-65
2021/06/12 01:07:38;;;;;;;27.48;18.65;;;;;;;17.85;100.00;101765.78;3556212;40;20059;-65
2021/06/12 01:10:06;;;;;;;27.30;18.25;;;;;;;17.82;100.00;101772.38;3561161;40;20597;-64
2021/06/12 01:12:46;;;;;;;25.55;16.80;;;;;;;17.83;100.00;101768.66;3559519;40;20063;-65
2021/06/12 01:15:13;;;;;;;28.20;18.40;;;;;;;17.87;100.00;101769.19;3558587;40;20225;-66
2021/06/12 01:17:47;;;;;;;26.02;18.45;;;;;;;17.79;100.00;101767.28;3556550;40;20103;-65
2021/06/12 01:20:31;;;;;;;27.67;20.17;;;;;;;17.75;100.00;101765.88;3554471;40;20051;-64
2021/06/12 01:23:23;;;;;;;31.85;18.27;;;;;;;17.76;100.00;101764.88;3558819;40;20384;-65
2021/06/12 01:25:57;;;;;;;29.77;20.15;;;;;;;17.75;100.00;101770.47;3556710;40;20229;-66
2021/06/12 01:28:41;;;;;;;28.65;18.98;;;;;;;17.75;100.00;101765.88;3557828;40;20045;-64
2021/06/12 01:31:10;;;;;;;24.90;17.42;;;;;;;17.78;100.00;101759.25;3556507;40;20445;-66
2021/06/12 01:33:38;;;;;;;26.23;17.20;;;;;;;17.78;100.00;101754.66;3554983;40;20056;-65
2021/06/12 01:36:06;;;;;;;29.20;18.90;;;;;;;17.71;100.00;101752.75;3553545;40;20068;-66
2021/06/12 01:38:36;;;;;;;26.10;18.00;;;;;;;17.71;100.00;101753.63;3554703;40;20052;-64
2021/06/12 01:41:05;;;;;;;32.80;19.10;;;;;;;17.55;100.00;101758.94;3553258;40;20049;-64
2021/06/12 01:43:33;;;;;;;33.13;18.45;;;;;;;17.64;100.00;101758.00;3553389;40;20059;-65
2021/06/12 01:45:59;;;;;;;26.95;18.13;;;;;;;17.76;100.00;101748.53;3553810;40;20302;-65
2021/06/12 01:48:28;;;;;;;29.13;17.85;;;;;;;17.62;100.00;101743.69;3552970;40;20348;-65
2021/06/12 01:50:57;;;;;;;30.33;18.48;;;;;;;17.64;100.00;101741.69;3555233;40;20618;-64
2021/06/12 01:53:30;;;;;;;27.50;18.20;;;;;;;17.65;100.00;101735.19;3560155;40;20300;-64
2021/06/12 01:55:59;;;;;;;26.80;16.65;;;;;;;17.71;100.00;101730.97;3556071;40;20053;-65
2021/06/12 01:58:26;;;;;;;30.35;18.73;;;;;;;17.61;100.00;101748.28;3554667;40;20081;-66
2021/06/12 02:00:54;;;;;;;30.05;18.25;;;;;;;17.64;100.00;101747.97;3556914;40;20064;-65
2021/06/12 02:03:22;;;;;;;30.35;16.75;;;;;;;17.51;100.00;101740.22;3560380;40;20063;-64
2021/06/12 02:05:51;;;;;;;31.67;17.88;;;;;;;17.51;100.00;101740.22;3558396;40;20055;-64
2021/06/12 02:08:17;;;;;;;;;;;;;;;17.38;100.00;101742.50;3560376;40;20049;-65
2021/06/12 02:10:46;;;;;;;29.63;18.70;;;;;;;17.39;100.00;101744.22;3558813;40;19948;-65
2021/06/12 02:13:13;;;;;;;32.85;19.27;;;;;;;17.41;100.00;101747.63;3553620;40;20460;-64
2021/06/12 02:15:40;;;;;;;32.65;18.60;;;;;;;17.46;100.00;101750.75;3553593;40;20082;-64
2021/06/12 02:18:08;;;;;;;25.17;16.77;;;;;;;17.50;100.00;101752.13;3551057;40;20785;-65
2021/06/12 02:20:36;;;;;;;28.80;17.15;;;;;;;17.52;100.00;101750.09;3556408;40;20400;-65
2021/06/12 02:23:06;;;;;;;30.77;18.20;;;;;;;17.55;100.00;101746.22;3553736;40;20041;-65
2021/06/12 02:25:33;;;;;;;27.35;16.63;;;;;;;17.58;100.00;101743.16;3557379;40;20057;-65
2021/06/12 02:28:03;;;;;;;29.20;16.40;;;;;;;17.58;100.00;101737.72;3558875;40;20292;-64
2021/06/12 02:30:31;;;;;;;31.70;16.48;;;;;;;17.58;100.00;101735.00;3559551;40;20107;-66
2021/06/12 02:33:01;;;;;;;30.63;18.05;;;;;;;17.57;100.00;101725.13;3561823;40;20037;-65
2021/06/12 02:35:28;;;;;;;34.60;16.77;;;;;;;17.47;100.00;101725.22;3556415;40;20060;-65
2021/06/12 02:37:54;;;;;;;25.83;16.35;;;;;;;17.52;100.00;101728.31;3559127;40;20048;-64
2021/06/12 02:40:22;;;;;;;32.28;17.60;;;;;;;17.43;100.00;101733.88;3551458;40;21083;-65
2021/06/12 02:42:48;;;;;;;31.15;17.70;;;;;;;17.42;100.00;101738.47;3555410;40;20037;-64
2021/06/12 02:45:14;;;;;;;28.75;17.27;;;;;;;17.40;100.00;101751.38;3556301;40;20085;-65
2021/06/12 02:47:53;;;;;;;33.45;17.73;;;;;;;17.40;100.00;101745.94;3558053;40;20052;-65
2021/06/12 02:50:24;;;;;;;30.88;17.92;;;;;;;17.42;100.00;101746.63;3560215;40;20615;-65
2021/06/12 02:52:52;;;;;;;30.35;18.30;;;;;;;17.50;100.00;101756.72;3556628;40;20056;-65
2021/06/12 02:55:18;;;;;;;30.85;17.17;;;;;;;17.38;100.00;101752.56;3552060;40;20053;-65
2021/06/12 02:57:47;;;;;;;27.00;16.58;;;;;;;17.32;100.00;101743.16;3552674;40;20183;-65
2021/06/12 03:00:15;;;;;;;31.23;16.83;;;;;;;17.35;100.00;101742.84;3555164;40;20204;-65
2021/06/12 03:02:43;;;;;;;31.27;16.70;;;;;;;17.40;100.00;101745.94;3558094;40;20582;-65
2021/06/12 03:05:15;;;;;;;31.80;17.95;;;;;;;17.32;100.00;101745.88;3556833;40;20108;-65
2021/06/12 03:07:44;;;;;;;31.63;18.58;;;;;;;17.25;100.00;101742.06;3554194;40;20049;-65
2021/06/12 03:10:11;;;;;;;27.88;17.52;;;;;;;17.30;100.00;101737.03;3555404;40;20059;-64
2021/06/12 03:12:39;;;;;;;35.80;17.23;;;;;;;17.32;100.00;101737.72;3557587;40;21667;-65
2021/06/12 03:15:09;;;;;;;34.28;17.88;;;;;;;17.29;100.00;101727.16;3556586;40;20163;-65
2021/06/12 03:17:36;;;;;;;29.98;17.20;;;;;;;17.19;100.00;101737.28;3557750;40;20481;-64
2021/06/12 03:20:03;;;;;;;33.45;17.23;;;;;;;17.05;100.00;101728.69;3559088;40;20137;-65
2021/06/12 03:22:30;;;;;;;28.65;15.57;;;;;;;17.07;100.00;101739.41;3564961;40;20049;-65
2021/06/12 03:24:57;;;;;;;26.42;15.55;;;;;;;17.08;100.00;101733.78;3564514;40;20104;-66
2021/06/12 03:27:23;;;;;;;29.80;17.52;;;;;;;17.04;100.00;101735.13;3564543;40;20149;-64
2021/06/12 03:29:50;;;;;;;28.27;15.82;;;;;;;16.92;100.00;101742.66;3566320;40;20048;-65
2021/06/12 03:32:17;;;;;;;32.90;18.48;;;;;;;16.87;100.00;101739.56;3566418;40;20178;-65
2021/06/12 03:34:44;;;;;;;26.42;16.30;;;;;;;16.97;100.00;101742.19;3566950;40;20083;-65
2021/06/12 03:37:11;;;;;;;28.35;15.68;;;;;;;17.01;100.00;101743.59;3564860;40;20487;-65
2021/06/12 03:39:37;;;;;;;32.63;16.23;;;;;;;17.06;100.00;101743.97;3566083;40;20339;-66
2021/06/12 03:42:03;;;;;;;28.40;15.10;;;;;;;17.11;100.00;101757.13;3558757;40;20056;-65
2021/06/12 03:44:30;;;;;;;27.60;15.10;;;;;;;17.05;100.00;101753.16;3551884;40;20108;-65
2021/06/12 03:46:56;;;;;;;21.77;13.75;;;;;;;17.11;100.00;101759.84;3552381;40;20065;-65
2021/06/12 03:49:24;;;;;;;24.33;14.43;;;;;;;17.14;100.00;101768.53;3555630;40;21414;-65
2021/06/12 03:51:51;;;;;;;28.58;14.55;;;;;;;17.22;100.00;101769.59;3559289;40;20037;-66
2021/06/12 03:54:17;;;;;;;24.88;13.10;;;;;;;17.14;100.00;101768.53;3557126;40;20052;-66
2021/06/12 03:56:44;;;;;;;26.63;14.30;;;;;;;17.23;100.00;101752.28;3558169;40;20091;-65
2021/06/12 03:59:10;;;;;;;23.63;13.85;;;;;;;17.26;100.00;101743.78;3556490;40;20055;-66
2021/06/12 04:01:37;;;;;;;32.38;13.30;;;;;;;17.32;100.00;101749.44;3553460;40;20320;-65
2021/06/12 04:04:03;;;;;;;26.30;12.98;;;;;;;17.39;100.00;101749.66;3552271;40;20061;-66
2021/06/12 04:06:30;;;;;;;24.05;12.57;;;;;;;17.45;100.00;101756.34;3554685;40;20037;-65
2021/06/12 04:08:56;;;;;;;25.05;11.80;;;;;;;17.37;100.00;101768.00;3559528;40;20064;-66
2021/06/12 04:11:22;;;;;;;22.02;12.60;;;;;;;17.33;100.00;101761.19;3552189;40;20113;-65
2021/06/12 04:13:48;;;;;;;26.05;12.50;;;;;;;17.39;100.00;101760.56;3554378;40;20424;-66
2021/06/12 04:16:14;;;;;;;28.05;12.68;;;;;;;17.32;100.00;101767.66;3552268;40;20084;-65
2021/06/12 04:18:41;;;;;;;26.38;13.38;;;;;;;17.30;100.00;101778.69;3552406;40;20044;-65
2021/06/12 04:21:07;;;;;;;20.30;11.32;;;;;;;17.29;100.00;101776.97;3552617;40;20064;-66
2021/06/12 04:23:34;;;;;;;21.83;11.05;;;;;;;17.35;100.00;101778.22;3551608;40;20098;-65
2021/06/12 04:26:00;;;;;;;19.90;10.05;;;;;;;17.27;100.00;101783.56;3552643;40;20427;-65
2021/06/12 04:28:26;;;;;;;18.48;9.30;;;;;;;17.28;100.00;101774.41;3551673;40;20419;-65
2021/06/12 04:30:53;;;;;;;21.73;9.60;;;;;;;17.23;100.00;101779.47;3563455;40;20099;-64
2021/06/12 04:33:19;;;;;;;19.17;9.70;;;;;;;17.36;100.00;101777.22;3562457;40;20370;-66
2021/06/12 04:35:45;;;;;;;16.85;8.95;;;;;;;17.31;100.00;101787.69;3572041;40;20554;-65
2021/06/12 04:38:11;;;;;;;17.92;8.45;;;;;;;17.25;100.00;101782.88;3575564;40;20444;-66
2021/06/12 04:40:38;;;;;;;18.05;8.52;;;;;;;17.24;100.00;101781.16;3575026;40;20524;-66
2021/06/12 04:43:06;;;;;;;24.40;9.00;;;;;;;17.34;100.00;101781.94;3563073;40;20045;-66
2021/06/12 04:45:32;;;;;;;13.93;7.75;;;;;;;17.35;100.00;101783.66;3565650;40;20076;-66
2021/06/12 04:47:58;;;;;;;17.63;7.85;;;;;;;17.44;100.00;101790.84;3564556;40;20075;-65
2021/06/12 04:50:25;;;;;;;18.30;8.25;;;;;;;17.23;100.00;101796.66;3564129;40;20374;-65
2021/06/12 04:52:51;;;;;;;20.48;8.10;;;;;;;17.31;100.00;101790.41;3563852;40;20092;-66
2021/06/12 04:55:17;;;;;;;16.25;8.57;;;;;;;17.50;100.00;101787.53;3571266;40;20124;-64
2021/06/12 04:57:44;;;;;;;17.92;7.70;;;;;;;17.28;100.00;101786.13;3566110;40;20100;-64
2021/06/12 05:00:12;;;;;;;18.65;7.78;;;;;;;17.19;100.00;101791.69;3565468;40;20323;-66
2021/06/12 05:02:39;;;;;;;16.57;7.57;;;;;;;17.22;100.00;101794.94;3565102;40;20055;-65
2021/06/12 05:05:06;;;;;;;19.38;7.47;;;;;;;17.40;100.00;101786.75;3564849;40;20704;-65
2021/06/12 05:07:32;;;;;;;15.65;6.90;;;;;;;17.51;100.00;101796.53;3564436;40;20076;-65
2021/06/12 05:09:58;;;;;;;13.50;7.00;;;;;;;17.58;100.00;101797.59;3569182;40;20330;-66
2021/06/12 05:12:24;;;;;;;16.35;6.70;;;;;;;17.60;100.00;101797.44;3571409;40;20072;-65
2021/06/12 05:14:53;;;;;;;15.45;6.75;;;;;;;17.51;100.00;101810.97;3566804;40;20043;-65
2021/06/12 05:17:19;;;;;;;19.00;7.00;;;;;;;17.52;100.00;101815.44;3567092;40;20167;-65
2021/06/12 05:19:45;;;;;;;12.93;6.55;;;;;;;17.54;100.00;101814.41;3568976;40;20036;-65
2021/06/12 05:22:11;;;;;;;17.75;6.95;;;;;;;17.60;100.00;101814.63;3570119;40;20162;-66
2021/06/12 05:24:38;;;;;;;12.23;6.70;;;;;;;17.72;100.00;101812.50;3568430;40;20050;-65
2021/06/12 05:27:06;;;;;;;12.93;6.57;;;;;;;17.68;100.00;101811.09;3568293;40;20074;-65
2021/06/12 05:29:32;;;;;;;16.05;7.05;;;;;;;17.62;100.00;101815.34;3565811;40;20095;-65
2021/06/12 05:31:59;;;;;;;11.77;6.57;;;;;;;17.73;100.00;101816.94;3555679;40;20450;-66
2021/06/12 05:34:26;;;;;;;12.80;6.30;;;;;;;17.78;100.00;101811.84;3559827;40;20086;-65
2021/06/12 05:36:52;;;;;;;12.70;6.03;;;;;;;17.88;100.00;101806.31;3556578;40;20072;-66
2021/06/12 05:39:18;;;;;;;14.15;6.05;;;;;;;18.08;100.00;101815.13;3559165;40;20130;-65
2021/06/12 05:41:44;;;;;;;10.85;5.57;;;;;;;18.26;100.00;101806.03;3559442;40;20539;-65
2021/06/12 05:44:10;;;;;;;12.85;5.90;;;;;;;18.35;100.00;101813.22;3559039;40;20057;-65
2021/06/12 05:46:36;;;;;;;10.95;5.32;;;;;;;18.51;100.00;101806.97;3556888;40;20069;-66
2021/06/12 05:49:03;;;;;;;11.00;6.30;;;;;;;18.45;100.00;101824.84;3557180;40;20046;-64
2021/06/12 05:51:30;;;;;;;14.10;6.00;;;;;;;18.21;100.00;101818.25;3557572;40;20044;-65
2021/06/12 05:53:56;;;;;;;10.63;5.70;;;;;;;18.26;100.00;101823.22;3557297;40;20067;-65
2021/06/12 05:56:21;;;;;;;12.90;5.80;;;;;;;18.45;100.00;101813.94;3556138;40;20072;-66
2021/06/12 05:58:47;;;;;;;10.73;5.50;;;;;;;18.42;100.00;101817.00;3556658;40;20443;-63
2021/06/12 06:01:13;;;;;;;13.68;5.78;;;;;;;18.24;100.00;101813.50;3558255;40;20463;-63
2021/06/12 06:03:40;;;;;;;10.48;4.93;;;;;;;18.20;100.00;101808.38;3555591;40;21841;-65
2021/06/12 06:06:07;;;;;;;11.05;5.38;;;;;;;18.48;100.00;101802.69;3558317;40;20320;-65
2021/06/12 06:08:33;;;;;;;11.98;5.20;;;;;;;18.73;100.00;101808.22;3556066;40;20100;-66
2021/06/12 06:11:00;;;;;;;10.32;5.57;;;;;;;18.97;100.00;101803.88;3560081;40;20367;-65
2021/06/12 06:13:26;;;;;;;7.10;4.15;;;;;;;18.86;100.00;101814.09;3560370;40;20059;-65
2021/06/12 06:15:52;;;;;;;9.35;4.50;;;;;;;18.76;100.00;101821.53;3559826;40;20049;-65
2021/06/12 06:18:18;;;;;;;9.32;4.63;;;;;;;18.76;100.00;101835.16;3560582;40;20049;-65
2021/06/12 06:20:45;;;;;;;8.52;3.95;;;;;;;18.58;100.00;101821.66;3557404;40;20289;-66
2021/06/12 06:23:12;;;;;;;10.32;4.63;;;;;;;18.73;100.00;101835.50;3560092;40;20053;-66
2021/06/12 06:25:39;;;;;;;9.95;4.22;;;;;;;18.68;100.00;101832.41;3555264;40;20053;-65
2021/06/12 06:28:05;;;;;;;8.93;4.90;;;;;;;18.97;100.00;101822.97;3553496;40;20049;-65
2021/06/12 06:30:31;;;;;;;12.40;5.50;;;;;;;19.04;100.00;101815.81;3557467;40;20355;-65
2021/06/12 06:32:58;;;;;;;10.98;4.63;;;;;;;19.22;100.00;101824.69;3556673;40;20053;-65
2021/06/12 06:35:24;;;;;;;9.18;4.50;;;;;;;19.48;100.00;101826.41;3556508;40;20057;-65
2021/06/12 06:37:50;;;;;;;9.60;4.35;;;;;;;19.35;100.00;101829.63;3566550;40;20091;-65
2021/06/12 06:40:18;;;;;;;8.07;4.47;;;;;;;19.41;100.00;101833.56;3566324;40;20037;-65
2021/06/12 06:42:44;;;;;;;10.18;4.80;;;;;;;19.76;100.00;101837.81;3559495;40;20293;-66
2021/06/12 06:45:12;;;;;;;8.35;4.45;;;;;;;19.89;100.00;101837.31;3558795;40;20392;-65
2021/06/12 06:47:38;;;;;;;8.65;4.32;;;;;;;19.65;100.00;101834.56;3555867;40;20065;-65
2021/06/12 06:50:05;;;;;;;11.38;4.22;;;;;;;19.55;100.00;101837.47;3559317;40;20159;-66
2021/06/12 06:52:31;;;;;;;5.60;3.85;;;;;;;19.61;100.00;101840.38;3560585;40;20041;-64
2021/06/12 06:54:57;;;;;;;9.35;4.25;;;;;;;19.55;100.00;101830.16;3559435;40;20080;-65
2021/06/12 06:57:25;;;;;;;7.38;3.60;;;;;;;19.76;100.00;101836.97;3559323;40;20086;-65
2021/06/12 06:59:51;;;;;;;7.32;3.50;;;;;;;19.75;100.00;101846.19;3559880;40;20053;-65
2021/06/12 07:02:17;;;;;;;5.95;3.20;;;;;;;19.98;100.00;101850.94;3560791;40;20488;-65
2021/06/12 07:04:44;;;;;;;7.65;3.13;;;;;;;19.86;100.00;101858.66;3559416;40;20079;-65
2021/06/12 07:07:10;;;;;;;7.28;3.22;;;;;;;19.81;100.00;101859.16;3558834;40;20064;-66
2021/06/12 07:09:36;;;;;;;5.57;2.90;;;;;;;19.86;100.00;101839.53;3562479;40;20096;-65
2021/06/12 07:12:03;;;;;;;5.60;3.15;;;;;;;20.18;100.00;101857.72;3555843;40;20056;-65
2021/06/12 07:14:31;;;;;;;6.22;2.97;;;;;;;20.41;100.00;101867.91;3554567;40;20138;-64
2021/06/12 07:16:58;;;;;;;6.17;2.83;;;;;;;20.04;100.00;101867.50;3556939;40;20445;-64
2021/06/12 07:19:24;;;;;;;7.07;3.03;;;;;;;19.87;100.00;101866.66;3557689;40;20095;-65
2021/06/12 07:21:50;;;;;;;6.78;3.17;;;;;;;19.98;100.00;101856.41;3559420;40;20291;-65
2021/06/12 07:24:16;;;;;;;6.55;2.83;;;;;;;19.93;100.00;101871.47;3558475;40;20057;-65
2021/06/12 07:26:43;;;;;;;7.03;2.92;;;;;;;20.04;100.00;101861.19;3560256;40;20126;-64
2021/06/12 07:29:09;;;;;;;8.85;3.33;;;;;;;20.37;100.00;101872.03;3559676;40;20151;-64
2021/06/12 07:31:38;;;;;;;6.90;2.58;;;;;;;20.36;100.00;101875.78;3558761;40;20061;-64
2021/06/12 07:34:05;;;;;;;8.95;2.97;;;;;;;20.33;100.00;101871.50;3558833;40;20049;-64
2021/06/12 07:36:31;;;;;;;6.55;2.70;;;;;;;20.29;100.00;101879.22;3552844;40;20037;-64
2021/06/12 07:38:57;;;;;;;6.25;2.90;;;;;;;20.73;100.00;101888.84;3553713;40;20067;-65
2021/06/12 07:41:24;;;;;;;7.63;2.75;;;;;;;20.93;100.00;101888.38;3558010;40;20559;-65
2021/06/12 07:43:50;;;;;;;8.60;2.92;;;;;;;20.98;100.00;101886.81;3553879;40;20041;-66
2021/06/12 07:46:17;;;;;;;5.97;3.03;;;;;;;20.94;100.00;101884.63;3553285;40;20048;-64
2021/06/12 07:48:44;;;;;;;7.07;3.17;;;;;;;21.03;100.00;101878.06;3553295;40;20057;-66
2021/06/12 07:51:11;;;;;;;4.70;2.30;;;;;;;20.62;100.00;101878.25;3558714;40;20045;-65
2021/06/12 07:53:37;;;;;;;6.18;3.00;;;;;;;20.59;100.00;101876.72;3560182;40;20335;-67
2021/06/12 07:56:04;;;;;;;6.15;2.90;;;;;;;20.91;100.00;101874.88;3559243;40;20065;-65
2021/06/12 07:58:30;;;;;;;5.85;2.83;;;;;;;20.77;100.00;101878.38;3557068;40;20333;-64
2021/06/12 08:00:56;;;;;;;7.80;3.05;;;;;;;21.03;100.00;101889.00;3555589;40;20049;-66
2021/06/12 08:03:23;;;;;;;6.30;2.75;;;;;;;20.55;100.00;101891.75;3559486;40;20071;-65
2021/06/12 08:05:50;;;;;;;7.95;3.17;;;;;;;20.45;100.00;101891.13;3563323;40;20037;-64
2021/06/12 08:08:17;;;;;;;6.30;2.95;;;;;;;20.16;100.00;101900.78;3564341;40;20220;-65
2021/06/12 08:10:43;;;;;;;6.82;2.90;;;;;;;20.03;100.00;101904.03;3566429;40;20060;-64
2021/06/12 08:13:09;;;;;;;13.32;3.70;;;;;;;20.07;100.00;101902.69;3566000;40;20628;-65
2021/06/12 08:15:36;;;;;;;6.63;2.67;;;;;;;20.48;100.00;101904.47;3565864;40;20412;-65
2021/06/12 08:18:03;;;;;;;6.07;2.45;;;;;;;20.48;100.00;101912.66;3565401;40;20049;-64
2021/06/12 08:20:30;;;;;;;6.82;2.60;;;;;;;20.55;100.00;101904.59;3565584;40;20057;-65
2021/06/12 08:22:57;;;;;;;5.60;2.60;;;;;;;20.27;100.00;101918.69;3566726;40;20051;-65
2021/06/12 08:25:23;;;;;;;5.63;2.72;;;;;;;20.57;100.00;101919.81;3565810;40;20081;-65
2021/06/12 08:27:50;;;;;;;7.80;3.22;;;;;;;20.84;100.00;101920.41;3566745;40;20064;-65
2021/06/12 08:30:17;;;;;;;5.85;2.72;;;;;;;20.87;100.00;101921.94;3566141;40;20037;-65
2021/06/12 08:32:44;;;;;;;5.88;2.60;;;;;;;21.24;100.00;101928.56;3565547;40;20118;-65
2021/06/12 08:35:11;;;;;;;4.35;2.60;;;;;;;21.29;100.00;101932.47;3565822;40;20040;-65
2021/06/12 08:37:37;;;;;;;8.30;3.10;;;;;;;21.10;100.00;101930.22;3565740;40;20376;-65
2021/06/12 08:40:06;;;;;;;6.38;3.08;;;;;;;20.96;100.00;101942.75;3566016;40;20415;-64
2021/06/12 08:42:33;;;;;;;7.93;2.67;;;;;;;21.13;100.00;101932.59;3559718;40;20166;-64
2021/06/12 08:45:03;;;;;;;5.80;2.63;;;;;;;21.34;100.00;101935.50;3552034;40;20328;-65
2021/06/12 08:47:31;;;;;;;8.93;3.08;;;;;;;21.20;100.00;101928.09;3550289;40;20040;-65
2021/06/12 08:49:58;;;;;;;7.63;2.97;;;;;;;21.43;100.00;101927.25;3554208;40;20239;-64
2021/06/12 08:52:24;;;;;;;5.32;2.70;;;;;;;20.82;100.00;101934.25;3554805;40;20281;-64
2021/06/12 08:54:50;;;;;;;6.57;3.10;;;;;;;21.21;100.00;101940.72;3559252;40;20075;-65
2021/06/12 08:57:18;;;;;;;6.88;3.15;;;;;;;21.15;100.00;101931.34;3560758;40;20556;-63
2021/06/12 08:59:45;;;;;;;8.70;3.20;;;;;;;21.45;100.00;101947.97;3553497;40;20052;-63
2021/06/12 09:02:12;;;;;;;5.57;2.40;;;;;;;21.81;100.00;101952.00;3555647;40;20045;-65
2021/06/12 09:04:43;;;;;;;7.45;2.90;;;;;;;21.54;100.00;101957.00;3556649;40;20044;-65
2021/06/12 09:07:25;;;;;;;7.25;2.60;;;;;;;21.75;100.00;101958.22;3558415;40;20508;-64
2021/06/12 09:09:53;;;;;;;9.15;3.33;;;;;;;21.76;100.00;101962.63;3561632;40;20064;-66
2021/06/12 09:12:22;;;;;;;6.10;2.92;;;;;;;22.07;100.00;101961.69;3558073;40;20304;-65
2021/06/12 09:15:03;;;;;;;;;;;;;;;21.94;100.00;101962.34;3557489;40;20057;-63
2021/06/12 09:17:37;;;;;;;6.97;2.95;;;;;;;22.44;100.00;101958.09;3558406;40;19951;-63
2021/06/12 09:20:05;;;;;;;9.30;3.10;;;;;;;22.77;100.00;101959.63;3558705;40;20053;-65
2021/06/12 09:22:31;;;;;;;10.23;2.90;;;;;;;22.88;94.19;101961.88;3562894;40;20308;-67
2021/06/12 09:44:35;;;;;;;5.07;2.30;;;;;;;23.15;81.95;101975.97;3611700;22;20112;-65
2021/06/12 09:47:02;;;;;;;6.22;2.67;;;;;;;23.09;81.52;101983.91;3590477;39;20148;-64
2021/06/12 09:49:33;;;;;;;5.68;2.83;;;;;;;23.20;83.86;101992.72;3586380;39;20105;-63
2021/06/12 09:52:02;;;;;;;7.18;2.78;;;;;;;22.86;95.12;101994.16;3583946;39;20103;-64
2021/06/12 09:54:37;;;;;;;8.40;2.67;;;;;;;22.51;92.21;101994.72;3587266;39;20055;-64
2021/06/12 09:57:05;;;;;;;6.38;2.40;;;;;;;22.47;93.74;102000.78;3589491;39;20051;-64
2021/06/12 09:59:41;;;;;;;6.22;2.63;;;;;;;23.35;83.97;102001.78;3590690;39;20160;-64
2021/06/12 10:02:07;;;;;;;8.20;2.17;;;;;;;22.82;82.56;101999.19;3584642;39;20382;-63
2021/06/12 10:04:33;;;;;;;8.05;2.22;;;;;;;22.82;83.01;102014.78;3584361;39;20048;-63
2021/06/12 10:07:00;;;;;;;6.63;2.28;;;;;;;22.21;86.54;102029.44;3585099;39;20390;-62
2021/06/12 10:09:27;;;;;;;6.53;2.85;;;;;;;22.67;84.33;102020.28;3583616;39;20059;-63
2021/06/12 10:11:54;;;;;;;6.47;2.53;;;;;;;22.23;82.15;102013.63;3584072;39;20063;-63
2021/06/12 10:14:21;;;;;;;6.88;2.65;;;;;;;22.17;80.43;102006.16;3588143;39;20414;-63
2021/06/12 10:16:50;;;;;;;6.72;2.40;;;;;;;22.07;80.06;102016.53;3590913;39;20052;-64
2021/06/12 10:19:17;;;;;;;5.88;2.20;;;;;;;22.25;95.20;102003.34;3587719;39;20047;-64
2021/06/12 10:21:44;;;;;;;6.68;2.17;;;;;;;22.08;87.21;102010.00;3586113;39;20070;-63
2021/06/12 10:24:11;;;;;;;4.80;2.03;;;;;;;22.46;93.17;102008.13;3583664;39;20186;-65
2021/06/12 10:26:37;;;;;;;6.80;2.53;;;;;;;22.93;77.20;102006.91;3589844;39;20066;-64
2021/06/12 10:29:05;;;;;;;6.32;2.13;;;;;;;22.40;77.77;102004.25;3585124;39;20052;-66
2021/06/12 10:31:34;;;;;;;5.68;2.40;;;;;;;21.96;79.42;102010.44;3590441;39;20076;-67
2021/06/12 10:34:03;;;;;;;6.45;2.30;;;;;;;21.86;80.35;102012.56;3592430;39;20121;-68
2021/06/12 10:36:30;;;;;;;7.82;2.00;;;;;;;22.72;75.04;102010.44;3592152;39;20163;-64
2021/06/12 10:38:57;;;;;;;6.68;2.38;;;;;;;22.54;75.50;102018.16;3586248;39;20394;-65
2021/06/12 10:41:25;;;;;;;4.60;2.10;;;;;;;22.66;68.10;102016.69;3588989;39;20383;-64
2021/06/12 10:43:54;;;;;;;6.15;2.15;;;;;;;21.98;76.02;102029.44;3589342;39;20690;-65
2021/06/12 10:46:23;;;;;;;7.03;2.47;;;;;;;22.15;79.11;102021.94;3586980;39;21087;-65
2021/06/12 10:48:52;;;;;;;;;;;;;;;22.55;75.21;102039.09;3590108;39;20386;-65
2021/06/12 10:51:44;;;;;;;6.75;2.20;;;;;;;22.25;78.92;102033.53;3587557;39;19940;-65
2021/06/12 10:54:33;;;;;;;4.03;1.90;;;;;;;21.95;71.49;102036.16;3582854;39;20140;-65
2021/06/12 10:57:00;;;;;;;;;;;;;;;22.30;75.82;102036.53;3583664;39;20087;-65
2021/06/12 10:59:46;;;;;;;7.70;2.25;;;;;;;22.16;76.17;102031.91;3591702;39;19971;-67
2021/06/12 11:02:17;;;;;;;8.23;2.05;;;;;;;22.34;80.60;102029.69;3590201;39;20059;-69
2021/06/12 11:04:50;;;;;;;5.85;1.85;;;;;;;22.26;73.53;102027.00;3593037;39;20497;-69
2021/06/12 11:07:29;;;;;;;5.10;1.98;;;;;;;22.44;75.29;102039.53;3591091;39;20387;-67
2021/06/12 11:10:10;;;;;;;;;;;;;;;23.02;73.66;102026.88;3590694;39;20164;-66
2021/06/12 11:12:37;;;;;;;7.63;2.10;;;;;;;23.24;66.03;102016.00;3587567;39;19950;-65
2021/06/12 11:15:09;;;;;;;4.93;1.90;;;;;;;23.07;74.12;102029.94;3592708;39;20905;-66
2021/06/12 11:17:36;;;;;;;7.40;1.90;;;;;;;22.53;76.30;102041.19;3589687;39;20053;-66
2021/06/12 11:20:25;;;;;;;5.93;2.17;;;;;;;23.03;63.87;102042.34;3591441;39;20365;-66
2021/06/12 11:22:53;;;;;;;7.05;2.38;;;;;;;23.38;75.09;102034.38;3590262;39;20066;-67
2021/06/12 11:25:55;;;;;;;4.35;2.13;;;;;;;23.78;67.65;102048.56;3588062;39;20040;-66
2021/06/12 11:28:24;;;;;;;3.42;2.10;;;;;;;23.90;66.31;102042.59;3561175;39;20107;-66
2021/06/12 11:30:52;;;;;;;6.25;1.95;;;;;;;24.38;62.03;102040.06;3589223;39;20473;-67
2021/06/12 11:33:18;;;;;;;3.45;1.60;;;;;;;23.48;62.93;102052.44;3589451;39;20104;-66
2021/06/12 11:35:50;;;;;;;4.57;2.03;;;;;;;22.98;66.88;102049.44;3589641;39;20040;-68